Terminal Aerodrome Forecast
Issued by NWS

Home | Current Version | Previous Version | Text Only | Print | Product List | Glossary On
Versions: 1 2 3 4 5 6 7 8 9 10 11 12 13 14 15 16 17
000
FTUS44 KLUB 241429 AAB
TAFCDS
TAF AMD
KCDS 241429Z 2414/2512 15011KT P6SM FEW025 BKN040 OVC080
      TEMPO 2414/2416 3SM RA BR SCT005 BKN025
     FM241800 17011KT P6SM SHRA SCT025 BKN040 OVC070=

USA.gov is the U.S. government's official web portal to all federal, state and local government web resources and services.